createdAt,value
2019-05-10T00:01:26.259Z,30.10
2019-05-10T00:04:39.676Z,30.00
2019-05-10T00:07:51.850Z,30.00
2019-05-10T00:10:52.131Z,30.00
2019-05-10T00:13:51.444Z,30.00
2019-05-10T00:16:46.980Z,30.00
2019-05-10T00:19:44.623Z,30.10
2019-05-10T00:22:40.563Z,30.00
2019-05-10T00:25:35.792Z,30.00
2019-05-10T00:28:31.978Z,30.00
2019-05-10T00:31:27.159Z,30.00
2019-05-10T00:34:22.537Z,30.10
2019-05-10T00:37:18.063Z,30.20
2019-05-10T00:40:13.666Z,30.40
2019-05-10T00:43:09.291Z,31.20
2019-05-10T00:46:04.431Z,30.70
2019-05-10T00:48:59.599Z,30.70
2019-05-10T00:51:54.962Z,30.90
2019-05-10T00:54:53.398Z,30.90
2019-05-10T00:57:48.468Z,31.00
2019-05-10T01:00:43.892Z,31.30
2019-05-10T01:03:40.148Z,31.90
2019-05-10T01:06:35.532Z,32.30
2019-05-10T01:09:30.620Z,32.70
2019-05-10T01:12:25.677Z,32.70
2019-05-10T01:15:21.246Z,32.80
2019-05-10T01:18:16.753Z,32.90
2019-05-10T01:21:12.592Z,32.90
2019-05-10T01:24:08.238Z,32.90
2019-05-10T01:27:03.563Z,32.80
2019-05-10T01:29:59.321Z,33.00
2019-05-10T01:32:56.126Z,33.00
2019-05-10T01:35:51.766Z,33.10
2019-05-10T01:38:47.417Z,33.10
2019-05-10T01:41:43.077Z,32.90
2019-05-10T01:44:39.173Z,33.10
2019-05-10T01:47:35.347Z,32.90
2019-05-10T01:50:31.075Z,33.10
2019-05-10T01:53:27.044Z,33.20
2019-05-10T01:56:23.902Z,33.00
2019-05-10T01:59:19.879Z,33.10
2019-05-10T02:02:16.559Z,33.10
2019-05-10T02:05:12.042Z,33.00
2019-05-10T02:08:07.138Z,32.60
2019-05-10T02:11:02.539Z,32.20
2019-05-10T02:13:57.569Z,32.20
2019-05-10T02:16:54.790Z,32.00
2019-05-10T02:19:50.464Z,31.80
2019-05-10T02:22:45.939Z,31.80
2019-05-10T02:25:42.320Z,31.80
2019-05-10T02:28:38.651Z,32.00
2019-05-10T02:31:33.557Z,32.00
2019-05-10T02:34:31.069Z,32.10
2019-05-10T02:37:28.785Z,32.20
2019-05-10T02:40:24.342Z,32.30
2019-05-10T02:43:20.331Z,32.40
2019-05-10T02:46:18.047Z,32.40
2019-05-10T02:49:13.774Z,32.40
2019-05-10T02:52:09.605Z,32.40
2019-05-10T02:55:07.000Z,32.50
2019-05-10T02:58:03.266Z,32.50
2019-05-10T03:01:01.332Z,32.50
2019-05-10T03:03:59.519Z,32.70
2019-05-10T03:06:58.007Z,32.60
2019-05-10T03:09:53.769Z,32.60
2019-05-10T03:12:49.971Z,32.70
2019-05-10T03:15:47.959Z,32.60
2019-05-10T03:18:46.343Z,32.70
2019-05-10T03:21:44.054Z,32.70
2019-05-10T03:24:39.149Z,32.70
2019-05-10T03:27:35.087Z,32.70
2019-05-10T03:30:30.443Z,32.70
2019-05-10T03:33:26.093Z,32.80
2019-05-10T03:36:21.864Z,32.70
2019-05-10T03:39:17.162Z,32.70
2019-05-10T03:42:12.227Z,32.70
2019-05-10T03:45:09.216Z,32.70
2019-05-10T03:48:07.872Z,32.70
2019-05-10T03:51:12.921Z,32.80
2019-05-10T03:54:23.062Z,32.90
2019-05-10T03:57:34.063Z,32.70
2019-05-10T04:00:29.932Z,32.70
2019-05-10T04:07:10.562Z,32.70
2019-05-10T04:10:12.045Z,32.60
2019-05-10T04:13:24.181Z,32.60
2019-05-10T04:16:19.495Z,32.60
2019-05-10T04:19:20.920Z,32.60
2019-05-10T04:22:17.652Z,32.50
2019-05-10T04:25:13.480Z,32.60
2019-05-10T04:28:09.026Z,32.60
2019-05-10T04:31:04.708Z,32.70
2019-05-10T04:34:00.020Z,32.60
2019-05-10T04:36:55.240Z,32.30
2019-05-10T04:39:50.536Z,30.20
2019-05-10T04:42:46.945Z,29.90
2019-05-10T04:45:42.666Z,30.00
2019-05-10T04:48:38.154Z,30.00
2019-05-10T04:51:33.815Z,30.00
2019-05-10T04:54:29.894Z,30.00
2019-05-10T04:57:25.737Z,30.10
2019-05-10T05:00:26.583Z,30.00
2019-05-10T05:03:22.117Z,30.10
2019-05-10T05:06:18.795Z,30.10
2019-05-10T05:09:15.138Z,30.20
2019-05-10T05:12:10.741Z,30.30
2019-05-10T05:15:09.280Z,30.20
2019-05-10T05:18:09.637Z,30.00
2019-05-10T05:21:28.436Z,30.10
2019-05-10T05:24:28.214Z,30.40
2019-05-10T05:27:34.768Z,30.40
2019-05-10T05:30:30.176Z,30.40
2019-05-10T05:34:13.281Z,30.30
2019-05-10T05:37:19.948Z,30.50
2019-05-10T05:40:23.212Z,30.70
2019-05-10T05:43:24.599Z,30.60
2019-05-10T05:46:24.168Z,30.70
2019-05-10T05:49:26.213Z,30.60
2019-05-10T05:52:25.271Z,30.70
2019-05-10T05:55:23.554Z,30.70
2019-05-10T05:58:27.388Z,30.90
2019-05-10T06:09:39.446Z,30.90
2019-05-10T06:12:44.555Z,31.20
2019-05-10T06:15:41.063Z,31.10
2019-05-10T06:18:41.785Z,31.20
2019-05-10T06:21:44.475Z,31.20
2019-05-10T06:24:46.914Z,31.20
2019-05-10T06:27:43.280Z,31.30
2019-05-10T06:30:48.616Z,31.30
2019-05-10T06:33:46.890Z,31.20
2019-05-10T06:36:44.993Z,31.20
2019-05-10T06:39:45.160Z,31.20
2019-05-10T06:42:40.202Z,31.10
2019-05-10T06:45:36.911Z,31.10
2019-05-10T06:48:34.726Z,31.20
2019-05-10T06:51:32.319Z,31.30
2019-05-10T06:54:28.941Z,31.30
2019-05-10T06:57:24.586Z,31.10
2019-05-10T07:00:26.074Z,31.30
2019-05-10T07:03:21.287Z,31.20
2019-05-10T07:06:16.832Z,31.20
2019-05-10T07:09:18.115Z,31.10
2019-05-10T07:12:15.177Z,31.30
2019-05-10T07:15:13.110Z,31.10
2019-05-10T07:18:16.765Z,31.30
2019-05-10T07:21:16.370Z,31.20
2019-05-10T07:24:18.292Z,31.20
2019-05-10T07:27:21.666Z,31.20
2019-05-10T07:40:29.591Z,31.30
2019-05-10T07:42:47.140Z,31.50
2019-05-10T07:45:50.934Z,31.40
2019-05-10T07:48:53.524Z,31.40
2019-05-10T07:51:46.551Z,31.40
2019-05-10T07:54:45.915Z,31.30
2019-05-10T07:57:42.833Z,31.30
2019-05-10T08:04:12.904Z,31.50
2019-05-10T08:07:11.392Z,31.40
2019-05-10T08:10:13.602Z,31.40
2019-05-10T08:13:25.297Z,31.50
2019-05-10T08:19:39.369Z,31.50
2019-05-10T08:22:42.309Z,31.50
2019-05-10T08:25:43.929Z,31.50
2019-05-10T08:28:43.802Z,31.50
2019-05-10T08:31:40.372Z,31.50
2019-05-10T08:34:51.690Z,31.50
2019-05-10T08:37:45.393Z,31.60
2019-05-10T08:40:48.861Z,31.60
2019-05-10T08:43:47.096Z,31.60
2019-05-10T08:46:44.332Z,31.60
2019-05-10T08:50:08.105Z,31.70
2019-05-10T08:53:11.009Z,31.70
2019-05-10T08:56:07.693Z,31.60
2019-05-10T09:07:06.059Z,31.50
2019-05-10T09:09:49.776Z,31.50
2019-05-10T09:12:50.883Z,31.50
2019-05-10T09:15:51.202Z,31.60
2019-05-10T09:18:46.702Z,31.10
2019-05-10T09:21:49.667Z,31.00
2019-05-10T09:24:48.685Z,30.20
2019-05-10T09:27:43.417Z,30.90
2019-05-10T09:30:56.469Z,30.90
2019-05-10T09:34:02.647Z,31.20
2019-05-10T09:37:26.145Z,31.10
2019-05-10T09:44:55.812Z,30.00
2019-05-10T09:47:53.709Z,29.60
2019-05-10T09:50:55.132Z,29.80
2019-05-10T09:53:48.625Z,29.80
2019-05-10T09:56:58.855Z,29.90
2019-05-10T09:59:57.201Z,29.80
2019-05-10T10:02:57.039Z,29.50
2019-05-10T10:05:55.056Z,29.10
2019-05-10T10:08:53.259Z,29.20
2019-05-10T10:12:02.663Z,29.10
2019-05-10T10:14:54.266Z,28.90
2019-05-10T10:17:54.105Z,28.80
2019-05-10T10:20:49.193Z,28.80
2019-05-10T10:23:46.403Z,28.90
2019-05-10T10:26:45.113Z,28.70
2019-05-10T10:29:40.842Z,28.80
2019-05-10T10:32:39.804Z,28.60
2019-05-10T10:35:38.094Z,28.50
2019-05-10T10:38:45.072Z,28.20
2019-05-10T10:41:36.707Z,28.20
2019-05-10T10:44:31.380Z,28.40
2019-05-10T10:47:32.018Z,28.20
2019-05-10T10:50:27.585Z,28.30
2019-05-10T10:53:28.250Z,28.40
2019-05-10T10:56:28.248Z,28.30
2019-05-10T10:59:25.098Z,28.00
2019-05-10T11:02:41.942Z,27.90
2019-05-10T11:05:49.584Z,28.40
2019-05-10T11:08:46.552Z,28.10
2019-05-10T11:11:44.726Z,27.70
2019-05-10T11:14:45.211Z,27.90
2019-05-10T11:17:41.464Z,27.80
2019-05-10T11:20:42.009Z,27.80
2019-05-10T11:23:39.038Z,27.80
2019-05-10T11:26:36.998Z,28.10
2019-05-10T11:29:41.738Z,28.20
2019-05-10T11:32:34.760Z,28.20
2019-05-10T11:35:34.639Z,27.90
2019-05-10T11:38:41.743Z,27.70
2019-05-10T11:41:37.027Z,27.90
2019-05-10T11:44:31.927Z,27.80
2019-05-10T11:47:32.718Z,27.70
2019-05-10T11:50:34.916Z,27.70
2019-05-10T11:53:26.245Z,27.70
2019-05-10T11:59:03.716Z,27.80
2019-05-10T12:02:43.221Z,27.90
2019-05-10T12:05:31.773Z,27.90
2019-05-10T12:08:24.048Z,27.90
2019-05-10T12:14:15.830Z,28.20
2019-05-10T12:17:13.806Z,28.30
2019-05-10T12:20:07.274Z,28.50
2019-05-10T12:23:04.335Z,28.70
2019-05-10T12:25:59.519Z,27.80
2019-05-10T12:26:59.195Z,28.00
2019-05-10T12:27:12.723Z,29.00
2019-05-10T12:29:11.531Z,29.10
2019-05-10T12:32:00.428Z,29.40
2019-05-10T12:34:58.376Z,29.30
2019-05-10T12:37:57.693Z,29.40
2019-05-10T12:40:54.863Z,29.50
2019-05-10T12:44:02.956Z,29.70
2019-05-10T12:46:53.788Z,29.70
2019-05-10T12:49:46.967Z,29.60
2019-05-10T12:52:53.675Z,29.60
2019-05-10T12:55:44.766Z,29.60
2019-05-10T12:58:40.759Z,30.40
2019-05-10T13:01:36.979Z,29.50
2019-05-10T13:04:40.604Z,29.30
2019-05-10T13:07:36.693Z,29.30
2019-05-10T13:10:30.041Z,29.20
2019-05-10T13:13:29.892Z,29.10
2019-05-10T13:16:24.188Z,29.10
2019-05-10T13:19:21.715Z,29.10
2019-05-10T13:22:17.939Z,29.10
2019-05-10T13:25:15.255Z,29.40
2019-05-10T13:28:13.840Z,29.20
2019-05-10T13:31:08.701Z,29.10
2019-05-10T13:34:05.345Z,29.20
2019-05-10T13:37:02.081Z,29.90
2019-05-10T13:40:05.648Z,29.30
2019-05-10T13:42:57.572Z,29.40
2019-05-10T13:45:55.283Z,29.40
2019-05-10T13:48:53.066Z,30.50
2019-05-10T13:51:47.882Z,29.80
2019-05-10T13:54:42.014Z,29.90
2019-05-10T13:57:36.135Z,30.00
2019-05-10T14:00:34.183Z,30.00
2019-05-10T14:03:42.215Z,30.00
2019-05-10T14:06:23.803Z,30.10
2019-05-10T14:09:20.923Z,30.10
2019-05-10T14:12:16.199Z,30.30
2019-05-10T14:15:13.572Z,30.40
2019-05-10T14:18:07.685Z,30.30
2019-05-10T14:21:15.316Z,30.30
2019-05-10T14:24:15.100Z,30.40
2019-05-10T14:27:06.536Z,30.70
2019-05-10T14:30:01.114Z,30.60
2019-05-10T14:32:56.255Z,30.70
2019-05-10T14:35:55.128Z,30.80
2019-05-10T14:38:53.534Z,30.90
2019-05-10T14:41:45.178Z,30.90
2019-05-10T14:44:41.407Z,31.00
2019-05-10T14:47:46.767Z,31.10
2019-05-10T14:50:32.069Z,31.00
2019-05-10T14:53:27.334Z,31.00
2019-05-10T14:56:22.639Z,31.10
2019-05-10T14:59:17.182Z,31.10
2019-05-10T15:02:16.851Z,31.10
2019-05-10T15:05:16.127Z,31.20
2019-05-10T15:08:05.828Z,31.30
2019-05-10T15:11:00.628Z,31.30
2019-05-10T15:13:55.566Z,31.40
2019-05-10T15:16:50.023Z,31.40
2019-05-10T15:19:56.475Z,31.40
2019-05-10T15:22:44.325Z,31.60
2019-05-10T15:25:54.652Z,31.50
2019-05-10T15:28:40.408Z,31.60
2019-05-10T15:31:31.212Z,31.60
2019-05-10T15:34:25.774Z,31.20
2019-05-10T15:37:21.820Z,31.10
2019-05-10T15:40:16.536Z,31.10
2019-05-10T15:43:17.279Z,31.00
2019-05-10T15:46:06.332Z,30.90
2019-05-10T15:49:01.274Z,30.80
2019-05-10T15:54:52.297Z,30.60
2019-05-10T15:57:46.628Z,30.70
2019-05-10T15:59:23.402Z,30.60
2019-05-10T16:00:41.761Z,30.80
2019-05-10T16:03:36.219Z,30.70
2019-05-10T16:06:32.437Z,30.60
2019-05-10T16:09:26.124Z,30.40
2019-05-10T16:12:20.445Z,30.40
2019-05-10T16:15:20.087Z,30.30
2019-05-10T16:18:10.756Z,30.20
2019-05-10T16:21:09.808Z,30.20
2019-05-10T16:24:00.720Z,30.10
2019-05-10T16:26:59.912Z,30.10
2019-05-10T16:29:51.011Z,30.20
2019-05-10T16:32:45.748Z,30.10
2019-05-10T16:35:44.315Z,30.10
2019-05-10T16:38:35.815Z,30.00
2019-05-10T16:41:30.385Z,30.00
2019-05-10T16:44:24.753Z,30.00
2019-05-10T16:47:18.981Z,30.00
2019-05-10T16:50:13.468Z,30.10
2019-05-10T16:53:08.190Z,30.10
2019-05-10T16:56:02.507Z,30.00
2019-05-10T16:58:59.479Z,30.10
2019-05-10T17:02:03.126Z,30.10
2019-05-10T17:04:49.102Z,30.10
2019-05-10T17:07:43.900Z,30.10
2019-05-10T17:10:38.929Z,30.10
2019-05-10T17:13:36.471Z,30.10
2019-05-10T17:16:29.518Z,30.10
2019-05-10T17:19:27.923Z,30.00
2019-05-10T17:22:20.430Z,30.20
2019-05-10T17:25:15.066Z,30.00
2019-05-10T17:28:09.768Z,30.00
2019-05-10T17:31:07.716Z,30.00
2019-05-10T17:34:02.073Z,30.00
2019-05-10T17:36:58.132Z,30.00
2019-05-10T17:39:53.757Z,29.70
2019-05-10T17:42:51.502Z,30.00
2019-05-10T17:45:45.605Z,30.00
2019-05-10T17:48:40.888Z,30.10
2019-05-10T17:51:36.959Z,30.20
2019-05-10T17:54:33.778Z,30.10
2019-05-10T17:57:28.145Z,30.00
2019-05-10T18:00:24.515Z,30.00
2019-05-10T18:03:21.126Z,30.10
2019-05-10T18:06:23.572Z,30.10
2019-05-10T18:09:12.830Z,30.10
2019-05-10T18:12:07.860Z,30.10
2019-05-10T18:15:04.936Z,30.20
2019-05-10T18:18:02.775Z,30.20
2019-05-10T18:20:55.708Z,30.20
2019-05-10T18:23:52.581Z,30.10
2019-05-10T18:26:48.046Z,30.10
2019-05-10T18:29:42.899Z,30.20
2019-05-10T18:32:37.554Z,30.20
2019-05-10T18:35:31.626Z,30.00
2019-05-10T18:38:30.791Z,30.10
2019-05-10T18:41:21.773Z,30.10
2019-05-10T18:44:17.928Z,30.00
2019-05-10T18:47:12.827Z,30.00
2019-05-10T18:50:08.356Z,30.00
2019-05-10T18:53:03.221Z,30.00
2019-05-10T18:55:57.892Z,30.00
2019-05-10T18:58:52.747Z,30.00
2019-05-10T19:01:47.292Z,30.20
2019-05-10T19:04:45.665Z,30.30
2019-05-10T19:07:37.382Z,30.30
2019-05-10T19:10:33.009Z,30.40
2019-05-10T19:13:30.761Z,30.40
2019-05-10T19:16:26.156Z,30.30
2019-05-10T19:19:21.958Z,30.40
2019-05-10T19:22:17.651Z,30.40
2019-05-10T19:25:14.479Z,30.30
2019-05-10T19:28:08.331Z,30.40
2019-05-10T19:31:02.523Z,30.50
2019-05-10T19:33:57.388Z,30.30
2019-05-10T19:36:52.231Z,30.30
2019-05-10T19:39:46.875Z,30.30
2019-05-10T19:42:43.254Z,30.50
2019-05-10T19:45:37.418Z,30.30
2019-05-10T19:48:35.465Z,30.40
2019-05-10T19:51:28.748Z,31.10
2019-05-10T19:54:23.227Z,30.30
2019-05-10T19:57:18.846Z,30.30
2019-05-10T20:00:14.422Z,30.20
2019-05-10T20:03:09.469Z,30.20
2019-05-10T20:06:03.872Z,30.20
2019-05-10T20:08:59.072Z,30.30
2019-05-10T20:11:53.793Z,30.20
2019-05-10T20:14:48.472Z,30.20
2019-05-10T20:17:42.780Z,30.20
2019-05-10T20:20:36.957Z,30.20
2019-05-10T20:23:31.630Z,30.40
2019-05-10T20:26:25.844Z,30.40
2019-05-10T20:29:20.467Z,30.60
2019-05-10T20:32:15.086Z,30.70
2019-05-10T20:35:10.665Z,30.70
2019-05-10T20:38:04.681Z,30.80
2019-05-10T20:40:59.028Z,30.70
2019-05-10T20:43:53.744Z,30.70
2019-05-10T20:46:47.974Z,30.70
2019-05-10T20:49:43.076Z,30.70
2019-05-10T20:52:37.790Z,30.90
2019-05-10T20:55:32.092Z,31.00
2019-05-10T20:58:26.639Z,30.80
2019-05-10T21:01:20.736Z,30.90
2019-05-10T21:04:15.067Z,30.80
2019-05-10T21:07:09.588Z,30.60
2019-05-10T21:10:04.143Z,30.60
2019-05-10T21:12:58.324Z,30.50
2019-05-10T21:15:52.882Z,30.60
2019-05-10T21:18:47.441Z,30.40
2019-05-10T21:21:41.544Z,30.30
2019-05-10T21:24:36.068Z,30.50
2019-05-10T21:27:30.545Z,30.20
2019-05-10T21:30:24.898Z,30.20
2019-05-10T21:33:19.319Z,30.20
2019-05-10T21:36:13.580Z,30.20
2019-05-10T21:39:09.669Z,30.20
2019-05-10T21:42:03.885Z,30.10
2019-05-10T21:44:58.488Z,30.20
2019-05-10T21:47:52.915Z,30.30
2019-05-10T21:50:47.428Z,30.30
2019-05-10T21:53:42.046Z,30.20
2019-05-10T21:56:37.289Z,30.40
2019-05-10T21:59:32.048Z,30.60
2019-05-10T22:02:26.861Z,30.80
2019-05-10T22:05:21.135Z,31.10
2019-05-10T22:08:15.235Z,31.30
2019-05-10T22:11:09.711Z,31.50
2019-05-10T22:14:04.444Z,31.70
2019-05-10T22:16:58.789Z,31.80
2019-05-10T22:19:53.024Z,31.90
2019-05-10T22:22:47.598Z,32.40
2019-05-10T22:25:41.826Z,32.30
2019-05-10T22:28:36.100Z,32.40
2019-05-10T22:31:30.375Z,32.50
2019-05-10T22:34:24.850Z,32.70
2019-05-10T22:37:19.246Z,32.70
2019-05-10T22:40:14.038Z,32.80
2019-05-10T22:43:08.486Z,32.90
2019-05-10T22:46:02.612Z,33.00
2019-05-10T22:48:56.938Z,33.10
2019-05-10T22:51:51.648Z,33.40
2019-05-10T22:54:46.246Z,33.40
2019-05-10T22:57:40.665Z,33.60
2019-05-10T23:00:35.853Z,33.60
2019-05-10T23:03:30.037Z,33.60
2019-05-10T23:06:24.638Z,33.80
2019-05-10T23:09:24.616Z,33.90
2019-05-10T23:12:15.118Z,34.00
2019-05-10T23:15:09.614Z,34.10
2019-05-10T23:18:04.330Z,34.30
2019-05-10T23:20:59.104Z,34.50
2019-05-10T23:23:54.225Z,34.70
2019-05-10T23:26:49.042Z,34.80
2019-05-10T23:29:44.648Z,35.00
2019-05-10T23:32:38.957Z,34.90
2019-05-10T23:35:33.560Z,35.10
2019-05-10T23:38:28.197Z,35.30
2019-05-10T23:41:23.206Z,35.40
2019-05-10T23:44:17.405Z,35.50
2019-05-10T23:47:12.118Z,35.40
2019-05-10T23:50:06.836Z,35.10
2019-05-10T23:53:01.207Z,35.10
2019-05-10T23:55:55.548Z,35.00
2019-05-10T23:58:49.970Z,35.00
